createdAt,value
2023-01-10T00:01:07.641Z,100.00
2023-01-10T00:03:35.860Z,100.00
2023-01-10T00:06:04.004Z,100.00
2023-01-10T00:08:32.063Z,100.00
2023-01-10T00:11:21.840Z,100.00
2023-01-10T00:13:48.886Z,100.00
2023-01-10T00:16:16.973Z,100.00
2023-01-10T00:18:45.079Z,100.00
2023-01-10T00:21:14.436Z,100.00
2023-01-10T00:23:42.746Z,100.00
2023-01-10T00:26:12.472Z,100.00
2023-01-10T00:28:40.573Z,100.00
2023-01-10T00:31:10.704Z,100.00
2023-01-10T00:33:38.881Z,100.00
2023-01-10T00:36:09.006Z,100.00
2023-01-10T00:38:38.012Z,100.00
2023-01-10T00:41:28.644Z,100.00
2023-01-10T00:43:57.207Z,100.00
2023-01-10T00:46:25.619Z,100.00
2023-01-10T00:48:53.957Z,100.00
2023-01-10T00:51:22.285Z,100.00
2023-01-10T00:53:50.307Z,100.00
2023-01-10T00:56:18.418Z,100.00
2023-01-10T00:58:46.537Z,100.00
2023-01-10T01:01:16.066Z,100.00
2023-01-10T01:03:44.269Z,100.00
2023-01-10T01:06:12.307Z,100.00
2023-01-10T01:08:40.374Z,100.00
2023-01-10T01:11:08.450Z,100.00
2023-01-10T01:13:36.808Z,100.00
2023-01-10T01:16:05.212Z,100.00
2023-01-10T01:18:35.275Z,100.00
2023-01-10T01:21:05.692Z,100.00
2023-01-10T01:23:35.895Z,100.00
2023-01-10T01:26:04.100Z,100.00
2023-01-10T01:28:32.316Z,100.00
2023-01-10T01:31:00.383Z,100.00
2023-01-10T01:33:28.638Z,100.00
2023-01-10T01:35:58.050Z,100.00
2023-01-10T01:38:26.113Z,100.00
2023-01-10T01:40:54.190Z,100.00
2023-01-10T01:43:27.260Z,100.00
2023-01-10T01:45:56.861Z,100.00
2023-01-10T01:48:37.690Z,100.00
2023-01-10T01:51:11.585Z,100.00
2023-01-10T01:53:46.094Z,100.00
2023-01-10T01:56:18.805Z,100.00
2023-01-10T01:58:51.914Z,100.00
2023-01-10T02:01:20.825Z,100.00
2023-01-10T02:03:52.609Z,100.00
2023-01-10T02:06:24.930Z,100.00
2023-01-10T02:09:00.429Z,100.00
2023-01-10T02:11:30.536Z,100.00
2023-01-10T02:14:00.478Z,100.00
2023-01-10T02:16:28.622Z,100.00
2023-01-10T02:18:56.822Z,100.00
2023-01-10T02:21:40.323Z,100.00
2023-01-10T02:24:43.825Z,100.00
2023-01-10T02:27:19.825Z,100.00
2023-01-10T02:30:25.682Z,100.00
2023-01-10T02:33:05.111Z,100.00
2023-01-10T02:35:52.003Z,100.00
2023-01-10T02:38:29.950Z,100.00
2023-01-10T02:41:06.405Z,100.00
2023-01-10T02:43:38.955Z,95.09
2023-01-10T02:46:10.024Z,94.79
2023-01-10T02:48:39.487Z,92.21
2023-01-10T02:51:18.493Z,88.00
2023-01-10T02:53:50.583Z,83.20
2023-01-10T02:57:00.271Z,79.02
2023-01-10T03:00:05.200Z,76.09
2023-01-10T03:03:14.805Z,73.63
2023-01-10T03:05:53.966Z,73.57
2023-01-10T03:08:33.019Z,72.95
2023-01-10T03:11:03.468Z,75.32
2023-01-10T03:13:37.630Z,72.67
2023-01-10T03:16:09.145Z,70.75
2023-01-10T03:18:41.714Z,69.87
2023-01-10T03:21:12.588Z,68.89
2023-01-10T03:23:42.281Z,69.04
2023-01-10T03:26:11.395Z,66.50
2023-01-10T03:28:45.979Z,67.54
2023-01-10T03:31:18.574Z,66.33
2023-01-10T03:33:48.355Z,66.11
2023-01-10T03:36:31.064Z,63.33
2023-01-10T03:39:06.209Z,65.64
2023-01-10T03:41:39.783Z,64.68
2023-01-10T03:44:35.184Z,62.87
2023-01-10T03:47:09.315Z,62.42
2023-01-10T03:49:41.139Z,63.82
2023-01-10T03:52:15.841Z,63.34
2023-01-10T03:54:44.725Z,61.82
2023-01-10T03:57:18.369Z,62.46
2023-01-10T03:59:47.243Z,62.03
2023-01-10T04:02:15.365Z,62.18
2023-01-10T04:04:43.488Z,62.02
2023-01-10T04:07:13.023Z,61.99
2023-01-10T04:09:41.164Z,61.67
2023-01-10T04:12:09.374Z,62.67
2023-01-10T04:14:37.516Z,62.68
2023-01-10T04:17:06.136Z,61.43
2023-01-10T04:19:34.317Z,62.52
2023-01-10T04:22:02.441Z,61.41
2023-01-10T04:24:31.862Z,62.01
2023-01-10T04:26:59.999Z,61.84
2023-01-10T04:29:28.326Z,61.15
2023-01-10T04:31:56.455Z,64.06
2023-01-10T04:34:24.550Z,61.93
2023-01-10T04:36:52.662Z,61.64
2023-01-10T04:39:20.775Z,60.15
2023-01-10T04:41:50.558Z,60.77
2023-01-10T04:44:18.715Z,60.52
2023-01-10T04:46:46.824Z,60.75
2023-01-10T04:49:15.339Z,60.61
2023-01-10T04:51:43.502Z,61.12
2023-01-10T04:54:11.824Z,60.74
2023-01-10T04:56:40.087Z,61.25
2023-01-10T04:59:11.031Z,60.50
2023-01-10T05:01:39.925Z,61.40
2023-01-10T05:04:08.382Z,59.49
2023-01-10T05:06:40.152Z,59.22
2023-01-10T05:09:08.910Z,60.12
2023-01-10T05:11:37.306Z,58.98
2023-01-10T05:14:05.452Z,59.50
2023-01-10T05:16:35.279Z,59.32
2023-01-10T05:19:03.477Z,59.02
2023-01-10T05:21:31.600Z,59.67
2023-01-10T05:23:59.806Z,58.37
2023-01-10T05:26:27.937Z,59.08
2023-01-10T05:28:56.074Z,57.12
2023-01-10T05:31:24.172Z,57.46
2023-01-10T05:33:53.758Z,58.41
2023-01-10T05:36:22.209Z,57.94
2023-01-10T05:38:50.406Z,58.30
2023-01-10T05:41:18.522Z,58.37
2023-01-10T05:43:46.702Z,58.02
2023-01-10T05:46:15.539Z,56.64
2023-01-10T05:48:43.685Z,56.32
2023-01-10T05:51:13.164Z,56.91
2023-01-10T05:53:41.270Z,57.84
2023-01-10T05:56:10.727Z,57.22
2023-01-10T05:58:38.851Z,57.84
2023-01-10T06:01:06.993Z,57.34
2023-01-10T06:03:35.150Z,57.47
2023-01-10T06:06:04.025Z,58.30
2023-01-10T06:08:33.692Z,56.96
2023-01-10T06:11:01.825Z,57.98
2023-01-10T06:13:29.913Z,57.78
2023-01-10T06:15:58.222Z,56.71
2023-01-10T06:18:26.460Z,57.39
2023-01-10T06:21:11.538Z,58.82
2023-01-10T06:32:17.748Z,56.88
2023-01-10T06:34:45.818Z,58.07
2023-01-10T06:37:13.937Z,56.41
2023-01-10T06:39:42.036Z,57.66
2023-01-10T06:42:10.150Z,58.03
2023-01-10T06:44:38.208Z,57.69
2023-01-10T06:47:06.592Z,56.99
2023-01-10T06:49:36.140Z,59.10
2023-01-10T06:52:04.515Z,58.99
2023-01-10T06:55:51.027Z,59.17
2023-01-10T06:58:19.310Z,59.41
2023-01-10T07:00:47.479Z,58.91
2023-01-10T07:03:15.595Z,57.88
2023-01-10T07:05:45.242Z,59.01
2023-01-10T07:08:13.338Z,60.44
2023-01-10T07:10:42.144Z,59.79
2023-01-10T07:13:10.796Z,61.09
2023-01-10T07:15:38.936Z,58.64
2023-01-10T07:18:07.082Z,62.43
2023-01-10T07:20:35.194Z,61.98
2023-01-10T07:23:04.725Z,61.37
2023-01-10T07:25:32.842Z,60.77
2023-01-10T07:28:00.917Z,60.90
2023-01-10T07:30:29.017Z,61.17
2023-01-10T07:32:57.806Z,63.32
2023-01-10T07:35:26.405Z,62.47
2023-01-10T07:37:54.549Z,60.19
2023-01-10T07:40:24.064Z,59.22
2023-01-10T07:42:57.667Z,61.99
2023-01-10T07:45:27.099Z,61.22
2023-01-10T07:47:58.083Z,60.60
2023-01-10T07:50:26.902Z,61.39
2023-01-10T07:52:55.314Z,60.44
2023-01-10T07:55:24.952Z,61.78
2023-01-10T07:57:53.305Z,59.98
2023-01-10T08:00:21.797Z,60.29
2023-01-10T08:02:54.104Z,58.88
2023-01-10T08:05:22.982Z,59.25
2023-01-10T08:07:51.133Z,60.94
2023-01-10T08:10:19.625Z,59.95
2023-01-10T08:12:51.104Z,59.83
2023-01-10T08:25:30.357Z,61.49
2023-01-10T08:27:59.874Z,61.78
2023-01-10T08:30:28.049Z,63.24
2023-01-10T08:34:01.255Z,60.49
2023-01-10T08:54:43.900Z,57.49
2023-01-10T08:57:12.132Z,56.67
2023-01-10T08:59:40.245Z,57.03
2023-01-10T09:02:13.220Z,55.57
2023-01-10T09:04:41.454Z,55.07
2023-01-10T09:07:09.602Z,55.41
2023-01-10T09:09:38.095Z,53.20
2023-01-10T09:12:27.812Z,53.43
2023-01-10T09:14:55.962Z,53.39
2023-01-10T09:17:24.215Z,54.20
2023-01-10T09:19:52.485Z,53.21
2023-01-10T09:22:20.630Z,52.71
2023-01-10T09:24:48.761Z,54.30
2023-01-10T09:27:18.267Z,53.52
2023-01-10T09:29:46.437Z,52.85
2023-01-10T09:32:14.935Z,54.27
2023-01-10T09:34:43.039Z,52.62
2023-01-10T09:37:11.157Z,50.87
2023-01-10T09:39:39.228Z,51.46
2023-01-10T09:42:19.002Z,50.69
2023-01-10T09:44:57.605Z,51.17
2023-01-10T09:47:33.949Z,51.06
2023-01-10T09:50:15.464Z,50.43
2023-01-10T09:52:47.971Z,49.78
2023-01-10T09:55:24.301Z,50.70
2023-01-10T09:57:55.322Z,50.73
2023-01-10T10:00:31.721Z,51.51
2023-01-10T10:02:59.941Z,49.93
2023-01-10T10:05:29.689Z,49.48
2023-01-10T10:08:02.472Z,49.97
2023-01-10T10:10:40.090Z,49.20
2023-01-10T10:13:27.491Z,50.08
2023-01-10T10:16:06.019Z,49.39
2023-01-10T10:18:44.352Z,48.73
2023-01-10T10:21:21.033Z,47.70
2023-01-10T10:24:02.363Z,48.01
2023-01-10T10:26:35.644Z,47.41
2023-01-10T10:29:42.779Z,46.19
2023-01-10T10:32:31.659Z,46.76
2023-01-10T10:35:04.416Z,46.66
2023-01-10T10:37:37.062Z,46.77
2023-01-10T10:40:08.083Z,47.09
2023-01-10T10:42:39.931Z,45.76
2023-01-10T10:45:16.724Z,46.09
2023-01-10T10:47:51.372Z,46.47
2023-01-10T10:50:24.970Z,46.01
2023-01-10T10:52:53.090Z,46.86
2023-01-10T10:55:29.151Z,46.55
2023-01-10T10:58:00.685Z,46.75
2023-01-10T11:00:30.396Z,46.18
2023-01-10T11:03:04.609Z,46.83
2023-01-10T11:05:37.775Z,48.17
2023-01-10T11:08:11.188Z,48.14
2023-01-10T11:10:40.506Z,48.70
2023-01-10T11:13:19.672Z,48.32
2023-01-10T11:15:59.659Z,47.94
2023-01-10T11:18:31.146Z,47.74
2023-01-10T11:21:05.550Z,46.90
2023-01-10T11:23:45.187Z,46.75
2023-01-10T11:26:31.695Z,46.61
2023-01-10T11:29:09.668Z,45.66
2023-01-10T11:31:38.450Z,43.91
2023-01-10T11:34:20.606Z,44.01
2023-01-10T11:37:00.669Z,44.76
2023-01-10T11:39:30.430Z,44.51
2023-01-10T11:42:00.029Z,44.31
2023-01-10T11:44:30.087Z,44.82
2023-01-10T11:47:03.208Z,45.92
2023-01-10T11:49:38.993Z,45.60
2023-01-10T11:52:17.504Z,44.36
2023-01-10T11:54:46.053Z,45.22
2023-01-10T11:57:19.901Z,46.24
2023-01-10T11:59:54.300Z,45.43
2023-01-10T12:02:26.039Z,45.06
2023-01-10T12:05:03.853Z,44.28
2023-01-10T12:07:32.148Z,43.65
2023-01-10T12:10:01.502Z,41.11
2023-01-10T12:12:31.298Z,40.46
2023-01-10T12:15:03.289Z,40.17
2023-01-10T12:17:35.216Z,39.69
2023-01-10T12:20:08.063Z,38.62
2023-01-10T12:22:40.931Z,40.67
2023-01-10T12:25:19.536Z,40.30
2023-01-10T12:27:50.396Z,40.23
2023-01-10T12:30:24.853Z,39.56
2023-01-10T12:32:55.118Z,37.86
2023-01-10T12:35:40.082Z,39.86
2023-01-10T12:38:22.176Z,39.23
2023-01-10T12:40:58.612Z,39.60
2023-01-10T12:43:52.106Z,39.28
2023-01-10T12:46:50.214Z,37.99
2023-01-10T12:49:20.359Z,39.85
2023-01-10T12:51:52.427Z,39.32
2023-01-10T12:54:24.521Z,40.06
2023-01-10T12:56:53.774Z,38.94
2023-01-10T12:59:37.096Z,40.42
2023-01-10T13:02:09.264Z,39.54
2023-01-10T13:04:39.741Z,39.65
2023-01-10T13:07:13.677Z,39.37
2023-01-10T13:09:44.189Z,40.01
2023-01-10T13:12:20.298Z,38.23
2023-01-10T13:14:55.634Z,38.99
2023-01-10T13:17:35.248Z,39.76
2023-01-10T13:20:43.299Z,39.64
2023-01-10T13:23:30.352Z,38.94
2023-01-10T13:26:02.905Z,38.37
2023-01-10T13:28:33.628Z,39.91
2023-01-10T13:31:03.453Z,40.67
2023-01-10T13:33:33.631Z,39.97
2023-01-10T13:36:10.921Z,39.18
2023-01-10T13:38:49.892Z,38.44
2023-01-10T13:41:36.661Z,38.70
2023-01-10T13:44:11.398Z,38.70
2023-01-10T13:46:52.974Z,39.29
2023-01-10T13:49:43.288Z,39.36
2023-01-10T13:52:43.466Z,38.83
2023-01-10T13:55:29.574Z,38.77
2023-01-10T13:57:59.717Z,39.11
2023-01-10T14:01:04.720Z,39.69
2023-01-10T14:03:56.154Z,41.01
2023-01-10T14:06:42.010Z,41.00
2023-01-10T14:09:33.132Z,42.01
2023-01-10T14:12:04.600Z,42.42
2023-01-10T14:14:34.995Z,42.34
2023-01-10T14:17:15.698Z,42.97
2023-01-10T14:19:46.687Z,44.29
2023-01-10T14:22:28.308Z,45.06
2023-01-10T14:24:56.649Z,45.30
2023-01-10T14:27:26.920Z,46.26
2023-01-10T14:29:59.183Z,46.09
2023-01-10T14:32:34.863Z,46.24
2023-01-10T14:35:07.562Z,48.04
2023-01-10T14:37:42.257Z,47.91
2023-01-10T14:40:20.278Z,48.81
2023-01-10T14:42:50.598Z,48.34
2023-01-10T14:45:31.394Z,49.44
2023-01-10T14:47:59.518Z,50.17
2023-01-10T14:50:32.457Z,51.61
2023-01-10T14:53:01.082Z,52.03
2023-01-10T14:55:29.296Z,52.83
2023-01-10T14:58:00.897Z,53.58
2023-01-10T15:00:31.156Z,53.10
2023-01-10T15:03:01.893Z,54.47
2023-01-10T15:05:31.997Z,54.67
2023-01-10T15:08:17.318Z,55.61
2023-01-10T15:10:47.303Z,55.30
2023-01-10T15:13:19.355Z,56.45
2023-01-10T15:15:49.698Z,57.13
2023-01-10T15:18:33.354Z,57.24
2023-01-10T15:21:02.170Z,57.71
2023-01-10T15:23:37.217Z,58.82
2023-01-10T15:26:09.587Z,57.97
2023-01-10T15:28:39.557Z,57.83
2023-01-10T15:31:14.286Z,58.34
2023-01-10T15:33:49.075Z,59.53
2023-01-10T15:36:25.594Z,59.24
2023-01-10T15:42:58.743Z,57.88
2023-01-10T15:46:14.104Z,57.72
2023-01-10T15:49:31.421Z,58.47
2023-01-10T15:52:58.783Z,57.70
2023-01-10T15:56:26.792Z,57.60
2023-01-10T16:07:49.203Z,57.83
2023-01-10T16:19:19.632Z,58.38
2023-01-10T16:26:47.027Z,58.05
2023-01-10T16:29:22.579Z,59.26
2023-01-10T16:31:52.358Z,59.06
2023-01-10T16:34:22.442Z,58.67
2023-01-10T16:36:50.527Z,57.89
2023-01-10T16:39:21.156Z,58.35
2023-01-10T16:42:07.230Z,58.06
2023-01-10T16:44:36.187Z,58.63
2023-01-10T16:47:06.912Z,59.60
2023-01-10T16:49:36.785Z,59.12
2023-01-10T16:52:05.196Z,58.06
2023-01-10T16:54:36.454Z,57.72
2023-01-10T16:57:04.586Z,57.74
2023-01-10T16:59:32.836Z,57.27
2023-01-10T17:02:01.161Z,57.41
2023-01-10T17:04:32.834Z,57.34
2023-01-10T17:07:02.384Z,57.42
2023-01-10T17:09:32.100Z,57.91
2023-01-10T17:12:03.513Z,58.72
2023-01-10T17:14:33.381Z,58.65
2023-01-10T17:17:03.154Z,60.09
2023-01-10T17:19:31.367Z,58.79
2023-01-10T17:22:00.362Z,59.27
2023-01-10T17:24:32.209Z,60.56
2023-01-10T17:27:00.358Z,60.31
2023-01-10T17:29:30.307Z,60.73
2023-01-10T17:31:58.491Z,60.08
2023-01-10T17:34:26.796Z,58.50
2023-01-10T17:36:54.941Z,58.52
2023-01-10T17:39:23.071Z,58.52
2023-01-10T17:41:52.659Z,57.93
2023-01-10T17:44:20.760Z,60.01
2023-01-10T17:46:48.956Z,59.42
2023-01-10T17:49:17.083Z,60.47
2023-01-10T17:51:45.232Z,60.51
2023-01-10T17:54:14.777Z,61.07
2023-01-10T17:56:43.243Z,63.04
2023-01-10T17:59:12.768Z,64.39
2023-01-10T18:01:42.319Z,64.17
2023-01-10T18:04:10.571Z,64.57
2023-01-10T18:06:38.710Z,65.68
2023-01-10T18:09:07.496Z,65.92
2023-01-10T18:11:36.068Z,64.98
2023-01-10T18:14:24.672Z,62.52
2023-01-10T18:16:55.427Z,63.64
2023-01-10T18:19:23.973Z,63.62
2023-01-10T18:21:52.295Z,62.68
2023-01-10T18:24:20.699Z,61.87
2023-01-10T18:26:49.427Z,60.39
2023-01-10T18:29:17.838Z,60.90
2023-01-10T18:31:46.604Z,60.59
2023-01-10T18:34:16.594Z,60.31
2023-01-10T18:36:45.179Z,59.64
2023-01-10T18:39:13.966Z,59.34
2023-01-10T18:41:42.587Z,59.06
2023-01-10T18:44:11.069Z,59.24
2023-01-10T18:46:39.539Z,58.69
2023-01-10T18:49:08.290Z,58.18
2023-01-10T18:51:38.502Z,58.32
2023-01-10T18:54:07.178Z,58.37
2023-01-10T18:56:35.938Z,58.78
2023-01-10T18:59:05.120Z,57.87
2023-01-10T19:01:35.041Z,57.39
2023-01-10T19:04:05.114Z,56.98
2023-01-10T19:06:34.382Z,57.26
2023-01-10T19:09:06.163Z,56.44
2023-01-10T19:11:34.597Z,56.48
2023-01-10T19:14:03.795Z,55.85
2023-01-10T19:16:33.349Z,55.32
2023-01-10T19:19:06.051Z,55.91
2023-01-10T19:21:39.496Z,55.16
2023-01-10T19:24:21.975Z,55.33
2023-01-10T19:26:50.425Z,55.49
2023-01-10T19:29:19.431Z,56.06
2023-01-10T19:31:48.618Z,55.95
2023-01-10T19:34:17.953Z,56.24
2023-01-10T19:46:16.821Z,56.69
2023-01-10T19:57:52.563Z,57.48
2023-01-10T20:00:22.529Z,58.21
2023-01-10T20:02:52.374Z,57.75
2023-01-10T20:05:20.625Z,58.13
2023-01-10T20:07:50.170Z,58.15
2023-01-10T20:10:19.118Z,59.12
2023-01-10T20:12:47.409Z,58.60
2023-01-10T20:15:17.207Z,58.17
2023-01-10T20:17:45.982Z,58.45
2023-01-10T20:20:16.776Z,58.42
2023-01-10T20:22:45.362Z,58.36
2023-01-10T20:25:13.964Z,58.11
2023-01-10T20:27:42.654Z,60.96
2023-01-10T20:30:14.171Z,60.29
2023-01-10T20:32:42.675Z,60.47
2023-01-10T20:35:14.064Z,61.87
2023-01-10T20:37:44.285Z,61.49
2023-01-10T20:40:13.358Z,60.76
2023-01-10T20:42:42.347Z,60.32
2023-01-10T20:45:10.936Z,60.51
2023-01-10T20:47:39.373Z,60.92
2023-01-10T20:50:09.004Z,62.23
2023-01-10T20:52:37.948Z,62.97
2023-01-10T20:55:08.759Z,63.05
2023-01-10T20:57:37.327Z,62.87
2023-01-10T21:00:06.328Z,63.04
2023-01-10T21:02:37.963Z,65.00
2023-01-10T21:05:07.012Z,63.89
2023-01-10T21:07:35.303Z,66.02
2023-01-10T21:10:04.041Z,66.98
2023-01-10T21:12:34.505Z,66.72
2023-01-10T21:15:02.929Z,68.68
2023-01-10T21:17:31.119Z,68.77
2023-01-10T21:19:59.335Z,69.33
2023-01-10T21:22:28.357Z,70.19
2023-01-10T21:24:56.583Z,70.01
2023-01-10T21:27:30.345Z,71.40
2023-01-10T21:30:00.746Z,72.52
2023-01-10T21:32:28.875Z,73.13
2023-01-10T21:34:57.030Z,73.42
2023-01-10T21:37:25.161Z,73.57
2023-01-10T21:39:53.604Z,73.94
2023-01-10T21:42:38.314Z,74.35
2023-01-10T21:45:09.455Z,75.38
2023-01-10T21:47:38.582Z,75.57
2023-01-10T21:50:08.804Z,76.05
2023-01-10T21:52:36.996Z,77.63
2023-01-10T21:55:06.552Z,78.12
2023-01-10T21:57:34.771Z,78.25
2023-01-10T22:00:03.302Z,77.63
2023-01-10T22:02:41.068Z,78.56
2023-01-10T22:05:11.357Z,78.66
2023-01-10T22:07:42.247Z,78.32
2023-01-10T22:10:11.559Z,78.06
2023-01-10T22:12:39.759Z,78.51
2023-01-10T22:15:10.085Z,81.10
2023-01-10T22:17:48.802Z,81.37
2023-01-10T22:20:17.744Z,83.36
2023-01-10T22:22:45.911Z,83.69
2023-01-10T22:25:14.008Z,83.99
2023-01-10T22:27:44.867Z,84.96
2023-01-10T22:30:13.794Z,86.81
2023-01-10T22:32:45.722Z,86.64
2023-01-10T22:35:14.899Z,86.84
2023-01-10T22:37:45.559Z,88.61
2023-01-10T22:40:13.933Z,89.75
2023-01-10T22:42:42.292Z,89.10
2023-01-10T22:45:14.125Z,89.49
2023-01-10T22:47:43.953Z,89.27
2023-01-10T22:50:12.448Z,90.55
2023-01-10T22:52:40.620Z,91.21
2023-01-10T22:55:09.438Z,91.51
2023-01-10T22:57:46.669Z,92.12
2023-01-10T23:00:16.376Z,93.73
2023-01-10T23:02:45.907Z,94.82
2023-01-10T23:05:14.142Z,94.46
2023-01-10T23:07:42.312Z,95.21
2023-01-10T23:10:28.411Z,95.80
2023-01-10T23:12:57.845Z,96.64
2023-01-10T23:15:29.069Z,95.79
2023-01-10T23:17:58.645Z,96.78
2023-01-10T23:20:27.074Z,97.01
2023-01-10T23:22:55.181Z,98.19
2023-01-10T23:25:23.329Z,98.74
2023-01-10T23:27:51.515Z,98.34
2023-01-10T23:30:19.866Z,97.82
2023-01-10T23:32:49.031Z,99.13
2023-01-10T23:35:18.701Z,99.13
2023-01-10T23:46:42.987Z,100.00
2023-01-10T23:49:11.147Z,100.00
2023-01-10T23:52:07.685Z,100.00
2023-01-10T23:54:42.008Z,100.00
2023-01-10T23:57:10.095Z,100.00
2023-01-10T23:59:38.264Z,100.00
